Time;durP1;ratioP1;P1;durP2;ratioP2;P2;SDS_P1;SDS_P2;PMS_P1;PMS_P2;Temp;Humidity;BMP_temperature;BMP_pressure;BME280_temperature;BME280_humidity;BME280_pressure;Samples;Min_cycle;Max_cycle;Signal;HPM_P1;HPM_P2
2023/12/23 00:02:17;;;;;;;;;;;;;;;6.93;51.04;98212.91;5052433;28;19912;-88
2023/12/23 00:04:42;;;;;;;;;;;;;;;6.95;51.74;98211.72;5053831;28;20378;-87
2023/12/23 00:07:12;;;;;;;;;;;;;;;6.94;50.80;98219.78;5051110;28;20003;-88
2023/12/23 00:09:37;;;;;;;;;;;;;;;6.95;52.03;98222.22;5051338;28;20324;-88
2023/12/23 00:12:03;;;;;;;;;;;;;;;6.94;51.52;98217.97;5051210;28;19913;-88
2023/12/23 00:14:28;;;;;;;;;;;;;;;6.96;51.81;98228.28;5051536;28;19912;-88
2023/12/23 00:16:53;;;;;;;;;;;;;;;6.97;52.42;98229.91;5052489;28;20344;-88
2023/12/23 00:19:18;;;;;;;;;;;;;;;6.97;52.30;98232.53;5052297;28;19924;-87
2023/12/23 00:21:44;;;;;;;;;;;;;;;6.95;52.32;98232.72;5051009;28;20380;-87
2023/12/23 00:24:09;;;;;;;;;;;;;;;6.95;52.35;98227.47;5050813;28;19916;-88
2023/12/23 00:26:34;;;;;;;;;;;;;;;6.93;50.31;98216.34;5050675;28;20059;-88
2023/12/23 00:28:59;;;;;;;;;;;;;;;6.92;52.29;98216.53;5051927;28;19916;-88
2023/12/23 00:31:25;;;;;;;;;;;;;;;6.93;52.45;98220.78;5051821;28;19995;-88
2023/12/23 00:33:50;;;;;;;;;;;;;;;6.90;51.54;98210.66;5051961;28;19916;-87
2023/12/23 00:36:15;;;;;;;;;;;;;;;6.89;51.61;98204.59;5051933;28;19917;-88
2023/12/23 00:38:41;;;;;;;;;;;;;;;6.92;52.77;98191.13;5050468;28;19928;-89
2023/12/23 00:41:06;;;;;;;;;;;;;;;6.90;52.02;98180.00;5050732;28;19966;-87
2023/12/23 00:43:31;;;;;;;;;;;;;;;6.85;51.62;98192.88;5051810;28;20366;-88
2023/12/23 00:45:57;;;;;;;;;;;;;;;6.83;52.49;98204.53;5050550;28;19916;-87
2023/12/23 00:48:22;;;;;;;;;;;;;;;6.82;51.79;98213.41;5050285;28;19912;-88
2023/12/23 00:50:47;;;;;;;;;;;;;;;6.82;51.84;98201.09;5050601;28;19913;-88
2023/12/23 00:53:12;;;;;;;;;;;;;;;6.80;51.47;98207.53;5052419;28;19935;-88
2023/12/23 00:55:39;;;;;;;;;;;;;;;6.75;51.36;98210.72;5050213;28;19967;-88
2023/12/23 00:58:04;;;;;;;;;;;;;;;6.74;52.55;98203.03;5050330;28;19912;-88
2023/12/23 01:00:29;;;;;;;;;;;;;;;6.72;51.26;98200.59;5050536;28;20278;-88
2023/12/23 01:02:54;;;;;;;;;;;;;;;6.73;52.48;98193.53;5052202;28;19913;-87
2023/12/23 01:05:20;;;;;;;;;;;;;;;6.78;52.43;98183.31;5050434;28;19913;-88
2023/12/23 01:07:45;;;;;;;;;;;;;;;6.79;51.87;98180.50;5051569;28;19913;-87
2023/12/23 01:10:11;;;;;;;;;;;;;;;6.82;52.27;98174.06;5050265;28;19928;-88
2023/12/23 01:12:36;;;;;;;;;;;;;;;6.81;53.24;98148.81;5050112;28;19912;-87
2023/12/23 01:15:02;;;;;;;;;;;;;;;6.74;52.43;98161.88;5051661;28;20014;-89
2023/12/23 01:17:28;;;;;;;;;;;;;;;6.68;52.93;98167.84;5050426;28;20396;-87
2023/12/23 01:19:53;;;;;;;;;;;;;;;6.60;53.17;98171.41;5053721;28;19967;-88
2023/12/23 01:22:18;;;;;;;;;;;;;;;6.52;53.40;98194.31;5054311;28;19955;-88
2023/12/23 01:24:43;;;;;;;;;;;;;;;6.50;53.00;98201.53;5055487;28;19913;-86
2023/12/23 01:27:09;;;;;;;;;;;;;;;6.47;53.80;98196.66;5055509;28;19913;-86
2023/12/23 01:29:34;;;;;;;;;;;;;;;6.41;53.40;98192.97;5053764;28;19916;-88
2023/12/23 01:31:59;;;;;;;;;;;;;;;6.32;53.75;98210.63;5053772;28;19913;-83
2023/12/23 01:34:24;;;;;;;;;;;;;;;6.25;53.70;98204.47;5055012;28;20382;-87
2023/12/23 01:36:50;;;;;;;;;;;;;;;6.23;53.59;98193.38;5053352;28;19931;-87
2023/12/23 01:39:15;;;;;;;;;;;;;;;6.21;54.41;98205.84;5054892;28;19913;-86
2023/12/23 01:41:40;;;;;;;;;;;;;;;6.19;54.67;98194.75;5053735;28;19913;-87
2023/12/23 01:44:05;;;;;;;;;;;;;;;6.15;55.00;98185.63;5053712;28;19917;-86
2023/12/23 01:46:32;;;;;;;;;;;;;;;6.08;54.62;98179.47;5053571;28;19913;-86
2023/12/23 01:48:58;;;;;;;;;;;;;;;6.03;55.33;98177.41;5054993;28;19996;-86
2023/12/23 01:51:24;;;;;;;;;;;;;;;5.96;55.41;98173.06;5054839;28;19913;-86
2023/12/23 01:53:49;;;;;;;;;;;;;;;5.89;55.33;98182.59;5053447;28;19912;-86
2023/12/23 01:56:15;;;;;;;;;;;;;;;5.84;55.79;98177.91;5053295;28;19913;-88
2023/12/23 01:58:41;;;;;;;;;;;;;;;5.81;55.16;98174.84;5054834;28;20309;-88
2023/12/23 02:01:06;;;;;;;;;;;;;;;5.80;56.28;98181.06;5053484;28;20373;-86
2023/12/23 02:03:31;;;;;;;;;;;;;;;5.74;56.38;98170.31;5054464;28;19939;-86
2023/12/23 02:05:57;;;;;;;;;;;;;;;5.71;55.85;98175.91;5053029;28;19912;-88
2023/12/23 02:08:22;;;;;;;;;;;;;;;5.67;56.07;98168.59;5053098;28;19912;-87
2023/12/23 02:10:49;;;;;;;;;;;;;;;5.62;55.91;98163.91;5053182;28;19913;-87
2023/12/23 02:13:25;;;;;;;;;;;;;;;5.59;56.39;98163.47;5052941;28;20448;-87
2023/12/23 02:15:51;;;;;;;;;;;;;;;5.59;55.91;98148.56;5053184;28;20425;-86
2023/12/23 02:18:16;;;;;;;;;;;;;;;5.60;56.14;98147.56;5053404;28;19913;-86
2023/12/23 02:20:42;;;;;;;;;;;;;;;5.61;56.72;98157.06;5054613;28;19912;-87
2023/12/23 02:23:07;;;;;;;;;;;;;;;5.59;56.32;98156.41;5053496;28;19913;-88
2023/12/23 02:25:33;;;;;;;;;;;;;;;5.54;56.13;98147.47;5052846;28;19969;-87
2023/12/23 02:27:59;;;;;;;;;;;;;;;5.54;55.96;98148.28;5053857;28;20378;-88
2023/12/23 02:30:25;;;;;;;;;;;;;;;5.53;56.86;98151.91;5053363;28;20324;-87
2023/12/23 02:32:50;;;;;;;;;;;;;;;5.51;56.43;98163.53;5053551;28;19913;-86
2023/12/23 02:35:15;;;;;;;;;;;;;;;5.50;56.38;98156.69;5052882;28;19946;-86
2023/12/23 02:37:41;;;;;;;;;;;;;;;5.45;57.06;98154.59;5052630;28;19924;-86
2023/12/23 02:40:07;;;;;;;;;;;;;;;5.46;56.91;98152.81;5052788;28;19916;-86
2023/12/23 02:42:32;;;;;;;;;;;;;;;5.44;55.87;98134.66;5054317;28;20396;-86
2023/12/23 02:44:58;;;;;;;;;;;;;;;5.42;56.33;98103.44;5052556;28;19913;-86
2023/12/23 02:47:23;;;;;;;;;;;;;;;5.41;56.17;98108.84;5053987;28;19947;-87
2023/12/23 02:49:48;;;;;;;;;;;;;;;5.41;56.59;98135.00;5052280;28;19924;-86
2023/12/23 02:52:13;;;;;;;;;;;;;;;5.40;55.97;98146.47;5053668;28;20388;-87
2023/12/23 02:54:39;;;;;;;;;;;;;;;5.39;56.81;98145.66;5053500;28;19920;-88
2023/12/23 02:57:04;;;;;;;;;;;;;;;5.39;56.43;98144.84;5053557;28;19912;-86
2023/12/23 02:59:29;;;;;;;;;;;;;;;5.38;56.52;98146.66;5052284;28;19920;-87
2023/12/23 03:01:55;;;;;;;;;;;;;;;5.39;56.91;98144.84;5052342;28;19979;-87
2023/12/23 03:04:20;;;;;;;;;;;;;;;5.35;56.56;98126.06;5052347;28;19912;-88
2023/12/23 03:06:45;;;;;;;;;;;;;;;5.34;56.25;98132.31;5053723;28;19963;-89
2023/12/23 03:09:10;;;;;;;;;;;;;;;5.35;56.71;98139.16;5053528;28;20385;-88
2023/12/23 03:11:37;;;;;;;;;;;;;;;5.34;56.78;98123.63;5053921;28;19919;-87
2023/12/23 03:14:03;;;;;;;;;;;;;;;5.33;57.11;98119.41;5053349;28;19912;-88
2023/12/23 03:16:33;;;;;;;;;;;;;;;5.29;55.99;98118.94;5051954;28;19967;-87
2023/12/23 03:18:59;;;;;;;;;;;;;;;5.29;56.81;98110.28;5053242;28;19913;-86
2023/12/23 03:21:24;;;;;;;;;;;;;;;5.31;57.08;98114.34;5051886;28;19913;-88
2023/12/23 03:23:49;;;;;;;;;;;;;;;5.29;57.68;98103.25;5053184;28;19916;-88
2023/12/23 03:26:15;;;;;;;;;;;;;;;5.27;57.19;98102.63;5053121;28;20378;-88
2023/12/23 03:28:40;;;;;;;;;;;;;;;5.27;56.59;98105.22;5051901;28;19909;-88
2023/12/23 03:31:06;;;;;;;;;;;;;;;5.29;57.07;98099.81;5053214;28;19921;-88
2023/12/23 03:33:31;;;;;;;;;;;;;;;5.27;56.92;98092.16;5051544;28;19912;-88
2023/12/23 03:35:59;;;;;;;;;;;;;;;5.23;56.67;98098.72;5052865;28;19912;-87
2023/12/23 03:38:24;;;;;;;;;;;;;;;5.18;56.22;98097.59;5052871;28;19929;-88
2023/12/23 03:40:50;;;;;;;;;;;;;;;5.14;56.56;98093.72;5052728;28;20040;-87
2023/12/23 03:43:15;;;;;;;;;;;;;;;5.09;56.88;98084.63;5052720;28;20007;-87
2023/12/23 03:45:40;;;;;;;;;;;;;;;5.10;57.37;98088.03;5053036;28;20362;-87
2023/12/23 03:48:06;;;;;;;;;;;;;;;5.07;57.24;98089.22;5051515;28;20007;-88
2023/12/23 03:50:31;;;;;;;;;;;;;;;5.10;57.29;98078.38;5051343;28;19959;-88
2023/12/23 03:52:57;;;;;;;;;;;;;;;5.13;57.07;98090.31;5051626;28;19956;-87
2023/12/23 03:55:29;;;;;;;;;;;;;;;5.14;57.41;98084.06;5052492;28;19912;-88
2023/12/23 03:57:54;;;;;;;;;;;;;;;5.07;57.12;98078.75;5051309;28;19913;-86
2023/12/23 04:00:19;;;;;;;;;;;;;;;5.06;57.79;98073.69;5052599;28;19913;-88
2023/12/23 04:02:44;;;;;;;;;;;;;;;5.03;58.17;98055.75;5052623;28;19923;-88
2023/12/23 04:05:10;;;;;;;;;;;;;;;4.98;57.70;98060.69;5052861;28;19912;-87
2023/12/23 04:07:35;;;;;;;;;;;;;;;5.01;57.87;98076.03;5051515;28;19917;-83
2023/12/23 04:10:00;;;;;;;;;;;;;;;5.00;58.10;98067.38;5050817;28;19917;-86
2023/12/23 04:12:26;;;;;;;;;;;;;;;5.00;58.64;98058.72;5052652;28;19916;-86
2023/12/23 04:14:51;;;;;;;;;;;;;;;4.92;57.59;98058.78;5052299;28;19912;-86
2023/12/23 04:17:16;;;;;;;;;;;;;;;4.90;58.44;98077.28;5052277;28;20305;-86
2023/12/23 04:19:41;;;;;;;;;;;;;;;4.91;58.65;98071.06;5052268;28;19913;-85
2023/12/23 04:22:07;;;;;;;;;;;;;;;4.88;58.15;98058.34;5052101;28;19912;-87
2023/12/23 04:24:32;;;;;;;;;;;;;;;4.86;57.97;98059.50;5050834;28;19984;-87
2023/12/23 04:26:57;;;;;;;;;;;;;;;4.84;58.57;98062.31;5052087;28;19955;-88
2023/12/23 04:29:24;;;;;;;;;;;;;;;4.82;58.39;98068.69;5050908;28;19970;-86
2023/12/23 04:31:49;;;;;;;;;;;;;;;4.80;58.65;98066.25;5050866;28;19951;-87
2023/12/23 04:34:14;;;;;;;;;;;;;;;4.78;58.53;98055.97;5050815;28;19960;-87
2023/12/23 04:36:39;;;;;;;;;;;;;;;4.73;58.31;98045.25;5050881;28;19913;-86
2023/12/23 04:39:05;;;;;;;;;;;;;;;4.71;58.59;98047.22;5052017;28;19964;-86
2023/12/23 04:41:34;;;;;;;;;;;;;;;4.71;59.01;98041.19;5052146;28;19912;-86
2023/12/23 04:43:59;;;;;;;;;;;;;;;4.70;59.16;98032.53;5052255;28;19913;-85
2023/12/23 04:46:24;;;;;;;;;;;;;;;4.72;59.00;98029.72;5050864;28;19920;-87
2023/12/23 04:48:50;;;;;;;;;;;;;;;4.68;59.06;98031.09;5052102;28;19923;-86
2023/12/23 04:51:15;;;;;;;;;;;;;;;4.69;59.29;98041.34;5050675;28;19944;-85
2023/12/23 04:53:40;;;;;;;;;;;;;;;4.70;59.12;98063.09;5051800;28;19913;-85
2023/12/23 04:56:06;;;;;;;;;;;;;;;4.66;58.97;98065.25;5055750;28;20313;-85
2023/12/23 04:58:31;;;;;;;;;;;;;;;4.65;59.48;98079.31;5055936;28;20309;-86
2023/12/23 05:00:56;;;;;;;;;;;;;;;4.67;59.52;98089.59;5054606;28;20405;-85
2023/12/23 05:03:22;;;;;;;;;;;;;;;4.65;59.51;98081.91;5054524;28;19945;-87
2023/12/23 05:05:47;;;;;;;;;;;;;;;4.61;59.40;98085.06;5055805;28;20404;-86
2023/12/23 05:08:16;;;;;;;;;;;;;;;4.60;59.87;98068.56;5055784;28;19912;-85
2023/12/23 05:10:42;;;;;;;;;;;;;;;4.58;59.87;98077.56;5054335;28;19917;-85
2023/12/23 05:13:07;;;;;;;;;;;;;;;4.57;59.90;98065.50;5054446;28;19920;-84
2023/12/23 05:15:32;;;;;;;;;;;;;;;4.55;59.77;98054.41;5055612;28;20386;-86
2023/12/23 05:17:57;;;;;;;;;;;;;;;4.52;59.84;98057.34;5055491;28;19917;-85
2023/12/23 05:20:23;;;;;;;;;;;;;;;4.51;59.83;98056.56;5055536;28;19913;-86
2023/12/23 05:22:48;;;;;;;;;;;;;;;4.51;60.22;98048.72;5055396;28;19913;-86
2023/12/23 05:25:13;;;;;;;;;;;;;;;4.56;60.29;98048.19;5055664;28;19960;-86
2023/12/23 05:27:39;;;;;;;;;;;;;;;4.51;60.08;98033.03;5054190;28;19913;-86
2023/12/23 05:30:05;;;;;;;;;;;;;;;4.48;59.86;98030.78;5055208;28;19963;-85
2023/12/23 05:32:30;;;;;;;;;;;;;;;4.51;60.36;98035.63;5055323;28;19965;-87
2023/12/23 05:34:56;;;;;;;;;;;;;;;4.54;60.31;98052.78;5055320;28;19917;-85
2023/12/23 05:37:22;;;;;;;;;;;;;;;4.56;60.56;98045.56;5055550;28;19921;-86
2023/12/23 05:39:48;;;;;;;;;;;;;;;4.54;60.62;98043.13;5053752;28;19916;-86
2023/12/23 05:42:13;;;;;;;;;;;;;;;4.54;60.68;98042.31;5053674;28;19905;-86
2023/12/23 05:44:39;;;;;;;;;;;;;;;4.54;60.76;98056.19;5054874;28;20377;-86
2023/12/23 05:47:04;;;;;;;;;;;;;;;4.49;60.54;98061.13;5055173;28;19935;-86
2023/12/23 05:49:29;;;;;;;;;;;;;;;4.49;60.67;98060.31;5055109;28;20373;-85
2023/12/23 05:51:54;;;;;;;;;;;;;;;4.41;60.04;98054.16;5054959;28;19917;-86
2023/12/23 05:54:20;;;;;;;;;;;;;;;4.39;60.29;98058.72;5053740;28;20023;-85
2023/12/23 05:56:45;;;;;;;;;;;;;;;4.38;60.33;98057.09;5054929;28;19917;-85
2023/12/23 05:59:10;;;;;;;;;;;;;;;4.38;60.02;98061.53;5054947;28;19919;-85
2023/12/23 06:01:35;;;;;;;;;;;;;;;4.36;60.09;98051.25;5054924;28;19913;-83
2023/12/23 06:04:01;;;;;;;;;;;;;;;4.41;60.07;98053.34;5054786;28;20001;-86
2023/12/23 06:06:26;;;;;;;;;;;;;;;4.43;60.13;98064.44;5053083;28;19913;-85
2023/12/23 06:08:51;;;;;;;;;;;;;;;4.45;59.81;98072.91;5057636;28;19917;-85
2023/12/23 06:11:17;;;;;;;;;;;;;;;4.46;60.38;98074.56;5057486;28;19916;-85
2023/12/23 06:13:42;;;;;;;;;;;;;;;4.44;60.09;98076.50;5053695;28;20340;-85
2023/12/23 06:16:07;;;;;;;;;;;;;;;4.46;60.26;98070.16;5054620;28;19912;-84
2023/12/23 06:18:33;;;;;;;;;;;;;;;4.51;60.19;98079.25;5054483;28;19913;-86
2023/12/23 06:20:58;;;;;;;;;;;;;;;4.49;59.94;98068.97;5054210;28;19913;-85
2023/12/23 06:23:24;;;;;;;;;;;;;;;4.50;60.16;98068.00;5054279;28;19965;-83
2023/12/23 06:25:49;;;;;;;;;;;;;;;4.51;60.18;98048.72;5054341;28;19913;-85
2023/12/23 06:28:14;;;;;;;;;;;;;;;4.52;60.45;98057.34;5053163;28;20420;-86
2023/12/23 06:30:40;;;;;;;;;;;;;;;4.50;60.20;98061.94;5054507;28;19916;-86
2023/12/23 06:33:05;;;;;;;;;;;;;;;4.52;60.26;98055.56;5054308;28;20317;-86
2023/12/23 06:35:30;;;;;;;;;;;;;;;4.53;60.21;98053.75;5054211;28;19967;-86
2023/12/23 06:37:55;;;;;;;;;;;;;;;4.57;60.28;98058.47;5054072;28;19982;-85
2023/12/23 06:40:21;;;;;;;;;;;;;;;4.57;60.73;98066.28;5054204;28;20337;-86
2023/12/23 06:42:47;;;;;;;;;;;;;;;4.63;60.30;98062.97;5052911;28;19916;-86
2023/12/23 06:45:12;;;;;;;;;;;;;;;4.67;59.92;98082.56;5052434;28;19913;-84
2023/12/23 06:47:38;;;;;;;;;;;;;;;4.72;59.96;98087.25;5054721;28;19913;-84
2023/12/23 06:50:03;;;;;;;;;;;;;;;4.75;60.09;98079.06;5052433;28;20287;-86
2023/12/23 06:52:28;;;;;;;;;;;;;;;4.78;59.50;98103.03;5052521;28;19912;-86
2023/12/23 06:54:54;;;;;;;;;;;;;;;4.77;59.81;98069.22;5053749;28;19913;-86
2023/12/23 06:57:19;;;;;;;;;;;;;;;4.77;59.78;98095.38;5052292;28;19913;-86
2023/12/23 06:59:45;;;;;;;;;;;;;;;4.79;59.88;98101.25;5052573;28;20372;-86
2023/12/23 07:02:11;;;;;;;;;;;;;;;4.84;59.79;98087.63;5052314;28;19913;-86
2023/12/23 07:04:36;;;;;;;;;;;;;;;4.83;59.63;98093.84;5053926;28;19943;-86
2023/12/23 07:07:01;;;;;;;;;;;;;;;4.88;59.91;98094.13;5053392;28;19913;-85
2023/12/23 07:09:26;;;;;;;;;;;;;;;4.95;60.01;98089.81;5053116;28;19917;-83
2023/12/23 07:11:52;;;;;;;;;;;;;;;4.94;59.79;98103.88;5053519;28;19916;-87
2023/12/23 07:14:17;;;;;;;;;;;;;;;4.97;59.56;98101.72;5053321;28;19923;-86
2023/12/23 07:16:43;;;;;;;;;;;;;;;5.02;58.79;98082.88;5051362;28;19919;-85
2023/12/23 07:19:09;;;;;;;;;;;;;;;5.03;59.23;98072.25;5053112;28;19927;-86
2023/12/23 07:21:34;;;;;;;;;;;;;;;5.08;59.52;98076.94;5051707;28;19913;-86
2023/12/23 07:23:59;;;;;;;;;;;;;;;5.14;59.12;98109.44;5053137;28;19913;-86
2023/12/23 07:26:25;;;;;;;;;;;;;;;5.20;59.09;98104.31;5053047;28;20420;-86
2023/12/23 07:28:50;;;;;;;;;;;;;;;5.23;58.59;98103.16;5052900;28;19917;-86
2023/12/23 07:31:15;;;;;;;;;;;;;;;5.28;59.06;98083.31;5052905;28;19920;-85
2023/12/23 07:33:41;;;;;;;;;;;;;;;5.33;59.13;98073.09;5052763;28;19909;-87
2023/12/23 07:36:06;;;;;;;;;;;;;;;5.44;58.84;98077.06;5052860;28;19913;-86
2023/12/23 07:38:32;;;;;;;;;;;;;;;5.55;59.01;98097.56;5052851;28;19963;-85
2023/12/23 07:40:57;;;;;;;;;;;;;;;5.64;58.72;98103.50;5051716;28;20332;-86
2023/12/23 07:43:22;;;;;;;;;;;;;;;5.69;58.35;98104.59;5052808;28;20008;-89
2023/12/23 07:45:47;;;;;;;;;;;;;;;5.76;58.64;98102.06;5051297;28;20381;-85
2023/12/23 07:48:13;;;;;;;;;;;;;;;5.86;58.05;98109.63;5052710;28;19917;-86
2023/12/23 07:50:38;;;;;;;;;;;;;;;5.99;57.87;98109.84;5052461;28;19985;-86
2023/12/23 07:53:03;;;;;;;;;;;;;;;6.10;57.92;98109.38;5051124;28;20424;-85
2023/12/23 07:55:29;;;;;;;;;;;;;;;6.23;58.06;98103.44;5051138;28;19913;-86
2023/12/23 07:57:54;;;;;;;;;;;;;;;6.32;57.18;98094.47;5051282;28;19972;-86
2023/12/23 08:00:19;;;;;;;;;;;;;;;6.38;57.46;98099.78;5051346;28;20309;-87
2023/12/23 08:02:45;;;;;;;;;;;;;;;6.40;57.83;98093.53;5051326;28;20014;-87
2023/12/23 08:05:10;;;;;;;;;;;;;;;6.43;57.75;98085.31;5051232;28;19935;-86
2023/12/23 08:07:36;;;;;;;;;;;;;;;6.45;57.85;98064.97;5050935;28;19913;-88
2023/12/23 08:10:02;;;;;;;;;;;;;;;6.53;57.05;98062.19;5052040;28;19917;-87
2023/12/23 08:12:28;;;;;;;;;;;;;;;6.63;57.33;98060.88;5052404;28;19991;-84
2023/12/23 08:14:53;;;;;;;;;;;;;;;6.72;57.46;98079.94;5052373;28;19966;-86
2023/12/23 08:17:18;;;;;;;;;;;;;;;6.79;56.64;98082.63;5050905;28;20387;-84
2023/12/23 08:19:43;;;;;;;;;;;;;;;6.84;56.43;98109.91;5050983;28;19917;-85
2023/12/23 08:22:09;;;;;;;;;;;;;;;6.89;57.00;98110.16;5052274;28;19913;-84
2023/12/23 08:24:34;;;;;;;;;;;;;;;6.97;57.04;98110.00;5050917;28;19966;-85
2023/12/23 08:26:59;;;;;;;;;;;;;;;7.04;57.17;98115.31;5050868;28;19920;-86
2023/12/23 08:29:25;;;;;;;;;;;;;;;7.14;56.33;98121.03;5050012;28;19917;-85
2023/12/23 08:31:50;;;;;;;;;;;;;;;7.26;56.47;98116.88;5050745;28;19936;-85
2023/12/23 08:34:16;;;;;;;;;;;;;;;7.33;56.75;98114.31;5050686;28;19920;-85
2023/12/23 08:36:41;;;;;;;;;;;;;;;7.38;56.52;98090.91;5052294;28;19917;-85
2023/12/23 08:39:07;;;;;;;;;;;;;;;7.42;56.43;98092.16;5051946;28;19921;-85
2023/12/23 08:41:35;;;;;;;;;;;;;;;7.46;56.70;98114.41;5050919;28;20373;-84
2023/12/23 08:44:00;;;;;;;;;;;;;;;7.49;56.73;98124.53;5051843;28;20310;-84
2023/12/23 08:46:25;;;;;;;;;;;;;;;7.52;56.13;98113.66;5051917;28;19913;-85
2023/12/23 08:48:51;;;;;;;;;;;;;;;7.61;56.51;98116.91;5050543;28;20453;-85
2023/12/23 08:51:16;;;;;;;;;;;;;;;7.64;57.10;98119.97;5051859;28;19919;-83
2023/12/23 08:53:41;;;;;;;;;;;;;;;7.69;56.85;98106.25;5052124;28;20305;-84
2023/12/23 08:56:06;;;;;;;;;;;;;;;7.75;56.51;98110.72;5051750;28;19909;-84
2023/12/23 08:58:32;;;;;;;;;;;;;;;7.81;56.35;98119.66;5051830;28;19913;-84
2023/12/23 09:00:57;;;;;;;;;;;;;;;7.85;56.66;98100.66;5051907;28;19908;-84
2023/12/23 09:03:22;;;;;;;;;;;;;;;7.92;55.94;98114.66;5051917;28;19913;-84
2023/12/23 09:05:48;;;;;;;;;;;;;;;7.98;55.60;98110.44;5051740;28;19913;-84
2023/12/23 09:08:13;;;;;;;;;;;;;;;8.04;55.90;98099.13;5051454;28;19920;-84
2023/12/23 09:10:39;;;;;;;;;;;;;;;8.10;55.76;98093.06;5051596;28;20360;-84
2023/12/23 09:13:04;;;;;;;;;;;;;;;8.18;55.40;98107.91;5051588;28;19912;-85
2023/12/23 09:15:29;;;;;;;;;;;;;;;8.27;55.57;98104.06;5051519;28;19913;-84
2023/12/23 09:17:55;;;;;;;;;;;;;;;8.34;54.86;98101.50;5051630;28;20315;-85
2023/12/23 09:20:20;;;;;;;;;;;;;;;8.41;54.17;98099.69;5051578;28;19917;-84
2023/12/23 09:22:45;;;;;;;;;;;;;;;8.48;54.71;98101.31;5051521;28;19928;-84
2023/12/23 09:25:10;;;;;;;;;;;;;;;8.53;54.15;98106.78;5051491;28;20383;-84
2023/12/23 09:27:36;;;;;;;;;;;;;;;8.60;52.44;98101.53;5051291;28;20421;-84
2023/12/23 09:30:01;;;;;;;;;;;;;;;8.69;52.99;98081.91;5050163;28;19917;-84
2023/12/23 09:32:26;;;;;;;;;;;;;;;8.80;53.77;98077.88;5050122;28;20377;-85
2023/12/23 09:34:54;;;;;;;;;;;;;;;8.88;53.31;98090.81;5051538;28;19970;-84
2023/12/23 09:37:20;;;;;;;;;;;;;;;8.96;53.43;98100.38;5051099;28;19928;-84
2023/12/23 09:39:45;;;;;;;;;;;;;;;9.02;52.80;98100.38;5050115;28;19913;-85
2023/12/23 09:42:10;;;;;;;;;;;;;;;9.09;51.21;98100.38;5055163;28;19913;-84
2023/12/23 09:44:36;;;;;;;;;;;;;;;9.20;53.20;98112.91;5054939;28;19917;-85
2023/12/23 09:47:01;;;;;;;;;;;;;;;9.27;51.54;98118.97;5055254;28;19911;-85
2023/12/23 09:49:27;;;;;;;;;;;;;;;9.37;52.17;98140.44;5055002;28;20372;-83
2023/12/23 09:51:54;;;;;;;;;;;;;;;9.46;52.13;98138.41;5055037;28;19920;-84
2023/12/23 09:54:21;;;;;;;;;;;;;;;9.56;51.73;98146.69;5052236;28;20007;-85
2023/12/23 09:56:50;;;;;;;;;;;;;;;9.65;51.30;98156.00;5053548;28;19917;-84
2023/12/23 09:59:15;;;;;;;;;;;;;;;9.77;49.39;98166.75;5055003;28;19917;-84
2023/12/23 10:01:40;;;;;;;;;;;;;;;9.91;49.53;98162.25;5055131;28;19912;-83
2023/12/23 10:04:06;;;;;;;;;;;;;;;10.03;51.72;98166.69;5053559;28;20011;-82
2023/12/23 10:06:31;;;;;;;;;;;;;;;10.13;50.97;98174.16;5053464;28;19920;-83
2023/12/23 10:08:56;;;;;;;;;;;;;;;10.21;47.94;98184.50;5054399;28;19986;-85
2023/12/23 10:11:23;;;;;;;;;;;;;;;10.34;50.10;98194.19;5054461;28;19920;-84
2023/12/23 10:13:49;;;;;;;;;;;;;;;10.46;49.91;98195.19;5054367;28;19913;-83
2023/12/23 10:16:14;;;;;;;;;;;;;;;10.53;49.87;98210.97;5054557;28;20309;-83
2023/12/23 10:18:40;;;;;;;;;;;;;;;10.62;49.12;98218.44;5053088;28;19913;-84
2023/12/23 10:21:06;;;;;;;;;;;;;;;10.66;48.30;98239.94;5054439;28;20003;-83
2023/12/23 10:23:32;;;;;;;;;;;;;;;10.71;47.67;98233.03;5054280;28;19924;-82
2023/12/23 10:25:58;;;;;;;;;;;;;;;10.74;46.85;98239.72;5054463;28;19909;-83
2023/12/23 10:28:24;;;;;;;;;;;;;;;10.75;48.66;98239.50;5052820;28;19920;-83
2023/12/23 10:30:51;;;;;;;;;;;;;;;10.76;48.56;98235.03;5054210;28;19917;-82
2023/12/23 10:33:17;;;;;;;;;;;;;;;10.82;47.89;98231.53;5052662;28;19966;-83
2023/12/23 10:35:46;;;;;;;;;;;;;;;10.82;49.15;98229.72;5052765;28;20385;-83
2023/12/23 10:38:14;;;;;;;;;;;;;;;10.81;48.18;98235.19;5053835;28;19963;-83
2023/12/23 10:40:40;;;;;;;;;;;;;;;10.82;49.79;98245.53;5052688;28;19971;-83
2023/12/23 10:43:08;;;;;;;;;;;;;;;10.87;50.08;98255.47;5052711;28;19956;-83
2023/12/23 10:45:34;;;;;;;;;;;;;;;10.91;49.40;98258.50;5052637;28;20404;-83
2023/12/23 10:48:00;;;;;;;;;;;;;;;10.95;50.79;98255.22;5052629;28;19922;-82
2023/12/23 10:50:26;;;;;;;;;;;;;;;11.00;49.37;98263.31;5053747;28;19956;-82
2023/12/23 10:52:52;;;;;;;;;;;;;;;11.07;49.50;98263.28;5051431;28;19912;-83
2023/12/23 10:55:19;;;;;;;;;;;;;;;11.09;50.01;98272.63;5053603;28;19912;-83
2023/12/23 10:57:47;;;;;;;;;;;;;;;11.12;50.26;98271.38;5052265;28;20356;-83
2023/12/23 11:00:13;;;;;;;;;;;;;;;11.17;51.24;98297.19;5053491;28;20382;-82
2023/12/23 11:02:39;;;;;;;;;;;;;;;11.18;52.63;98289.06;5053460;28;19913;-82
2023/12/23 11:05:06;;;;;;;;;;;;;;;11.21;52.00;98306.31;5053380;28;19913;-83
2023/12/23 11:07:35;;;;;;;;;;;;;;;11.25;52.71;98336.56;5053500;28;19916;-83
2023/12/23 11:10:02;;;;;;;;;;;;;;;11.29;52.70;98350.97;5053198;28;20055;-83
2023/12/23 11:12:28;;;;;;;;;;;;;;;11.27;52.90;98361.75;5052200;28;19913;-81
2023/12/23 11:14:54;;;;;;;;;;;;;;;11.29;53.35;98378.22;5053676;28;20011;-83
2023/12/23 11:17:25;;;;;;;;;;;;;;;11.27;53.17;98398.75;5052301;28;19952;-83
2023/12/23 11:19:50;;;;;;;;;;;;;;;11.19;53.38;98401.63;5051811;28;19913;-82
2023/12/23 11:22:19;;;;;;;;;;;;;;;11.11;54.38;98423.78;5052074;28;20003;-84
2023/12/23 11:24:44;;;;;;;;;;;;;;;11.05;53.68;98440.47;5053712;28;19912;-82
2023/12/23 11:27:27;;;;;;;;;;;;;;;10.98;53.63;98447.59;5051973;28;20008;-82
2023/12/23 11:29:53;;;;;;;;;;;;;;;10.93;53.66;98450.06;5053223;28;20363;-83
2023/12/23 11:32:18;;;;;;;;;;;;;;;10.91;52.84;98449.44;5052073;28;19917;-83
2023/12/23 11:34:44;;;;;;;;;;;;;;;10.85;52.07;98463.47;5045996;28;19971;-83
2023/12/23 11:37:10;;;;;;;;;;;;;;;10.82;52.38;98454.13;5028974;28;19925;-83
2023/12/23 11:39:36;;;;;;;;;;;;;;;10.83;52.56;98470.78;5029830;28;20313;-82
2023/12/23 11:42:02;;;;;;;;;;;;;;;10.83;51.46;98468.97;5033881;28;19956;-82
2023/12/23 11:44:27;;;;;;;;;;;;;;;10.79;51.40;98469.59;5033837;28;19917;-83
2023/12/23 11:46:53;;;;;;;;;;;;;;;10.77;51.84;98474.25;5031688;28;19913;-82
2023/12/23 11:49:18;;;;;;;;;;;;;;;10.74;51.76;98475.47;5031373;28;20361;-83
2023/12/23 11:51:44;;;;;;;;;;;;;;;10.76;51.88;98451.50;5031941;28;20322;-83
2023/12/23 11:54:09;;;;;;;;;;;;;;;10.74;52.50;98462.28;5032500;28;19936;-83
2023/12/23 11:56:35;;;;;;;;;;;;;;;10.76;52.25;98460.25;5032514;28;19962;-84
2023/12/23 11:59:01;;;;;;;;;;;;;;;10.77;52.23;98453.94;5032507;28;19920;-83
2023/12/23 12:01:27;;;;;;;;;;;;;;;10.77;52.87;98450.50;5032368;28;19917;-83
2023/12/23 12:03:52;;;;;;;;;;;;;;;10.81;53.31;98459.63;5032040;28;19913;-82
2023/12/23 12:06:17;;;;;;;;;;;;;;;10.81;52.58;98476.28;5031188;28;19917;-83
2023/12/23 12:08:43;;;;;;;;;;;;;;;10.83;52.69;98452.31;5032539;28;19972;-83
2023/12/23 12:11:08;;;;;;;;;;;;;;;10.89;53.29;98453.31;5032450;28;19968;-83
2023/12/23 12:13:37;;;;;;;;;;;;;;;10.92;53.22;98450.25;5032398;28;19917;-84
2023/12/23 12:16:02;;;;;;;;;;;;;;;10.89;53.48;98443.56;5031291;28;19913;-83
2023/12/23 12:18:28;;;;;;;;;;;;;;;10.86;53.94;98446.63;5032535;28;19920;-82
2023/12/23 12:20:53;;;;;;;;;;;;;;;10.81;53.52;98433.22;5032260;28;19921;-83
2023/12/23 12:23:19;;;;;;;;;;;;;;;10.76;54.05;98441.75;5031009;28;19913;-83
2023/12/23 12:25:48;;;;;;;;;;;;;;;10.76;53.89;98444.41;5032577;28;20003;-83
2023/12/23 12:28:14;;;;;;;;;;;;;;;10.78;54.55;98431.81;5031114;28;19913;-83
2023/12/23 12:30:39;;;;;;;;;;;;;;;10.81;54.60;98425.31;5031028;28;20394;-83
2023/12/23 12:33:04;;;;;;;;;;;;;;;10.76;55.29;98428.56;5030742;28;19951;-83
2023/12/23 12:35:30;;;;;;;;;;;;;;;10.74;54.85;98433.22;5032288;28;20314;-83
2023/12/23 12:37:55;;;;;;;;;;;;;;;10.74;55.13;98429.78;5032152;28;19925;-83
2023/12/23 12:40:20;;;;;;;;;;;;;;;10.74;54.85;98435.06;5032121;28;19913;-83
2023/12/23 12:42:51;;;;;;;;;;;;;;;10.73;54.70;98439.53;5030745;28;20358;-82
2023/12/23 12:45:17;;;;;;;;;;;;;;;10.71;54.76;98441.56;5031893;28;20287;-83
2023/12/23 12:47:42;;;;;;;;;;;;;;;10.69;54.59;98470.00;5031854;28;19920;-82